sensor_id;sensor_type;location;lat;lon;timestamp;pressure;altitude;pressure_sealevel;temperature;humidity
58092;BME280;43896;48.178;11.578;2023-08-21T03:37:23;96334.16;;;22.17;64.51
58092;BME280;43896;48.178;11.578;2023-08-21T03:53:10;96361.03;;;22.61;63.36
58092;BME280;43896;48.178;11.578;2023-08-21T03:59:27;96294.50;;;22.07;64.04
58092;BME280;43896;48.178;11.578;2023-08-21T04:42:34;96347.00;;;22.40;64.36
58092;BME280;43896;48.178;11.578;2023-08-21T04:45:00;96331.19;;;22.32;64.44
58092;BME280;43896;48.178;11.578;2023-08-21T04:47:27;96320.63;;;22.37;64.41
58092;BME280;43896;48.178;11.578;2023-08-21T04:49:53;96389.88;;;22.84;63.87
58092;BME280;43896;48.178;11.578;2023-08-21T04:52:20;96313.25;;;22.33;63.74
58092;BME280;43896;48.178;11.578;2023-08-21T04:54:46;96330.91;;;22.40;63.83
58092;BME280;43896;48.178;11.578;2023-08-21T04:57:12;96341.31;;;22.48;64.10
58092;BME280;43896;48.178;11.578;2023-08-21T04:59:38;96341.31;;;22.48;64.39
58092;BME280;43896;48.178;11.578;2023-08-21T05:02:03;96345.38;;;22.58;63.94
58092;BME280;43896;48.178;11.578;2023-08-21T05:04:29;96345.75;;;22.61;64.08
58092;BME280;43896;48.178;11.578;2023-08-21T05:06:54;96395.81;;;22.86;64.29
58092;BME280;43896;48.178;11.578;2023-08-21T05:09:19;96318.38;;;22.34;64.48
58092;BME280;43896;48.178;11.578;2023-08-21T05:11:45;96346.63;;;22.55;64.21
58092;BME280;43896;48.178;11.578;2023-08-21T05:14:10;96364.66;;;22.66;64.49
58092;BME280;43896;48.178;11.578;2023-08-21T05:16:36;96328.38;;;22.45;64.52
58092;BME280;43896;48.178;11.578;2023-08-21T05:19:01;96387.94;;;22.91;63.79
58092;BME280;43896;48.178;11.578;2023-08-21T05:21:27;96318.25;;;22.47;64.52
58092;BME280;43896;48.178;11.578;2023-08-21T05:23:52;96372.97;;;23.02;63.04
58092;BME280;43896;48.178;11.578;2023-08-21T05:26:18;96369.91;;;23.17;63.44
58092;BME280;43896;48.178;11.578;2023-08-21T05:28:44;96388.34;;;23.32;62.27
58092;BME280;43896;48.178;11.578;2023-08-21T05:31:09;96398.84;;;23.52;62.64
58092;BME280;43896;48.178;11.578;2023-08-21T05:33:34;96381.59;;;23.41;62.38
58092;BME280;43896;48.178;11.578;2023-08-21T05:36:00;96402.03;;;23.61;61.61
58092;BME280;43896;48.178;11.578;2023-08-21T05:38:25;96399.00;;;23.69;61.27
58092;BME280;43896;48.178;11.578;2023-08-21T05:40:50;96389.44;;;23.73;61.52
58092;BME280;43896;48.178;11.578;2023-08-21T05:43:16;96387.66;;;23.85;60.58
58092;BME280;43896;48.178;11.578;2023-08-21T05:45:42;96402.75;;;23.98;60.73
58092;BME280;43896;48.178;11.578;2023-08-21T05:48:07;96409.44;;;24.07;60.41
58092;BME280;43896;48.178;11.578;2023-08-21T05:50:33;96401.63;;;24.06;60.11
58092;BME280;43896;48.178;11.578;2023-08-21T05:52:58;96410.06;;;24.21;60.03
58092;BME280;43896;48.178;11.578;2023-08-21T05:55:26;96406.44;;;24.15;59.67
58092;BME280;43896;48.178;11.578;2023-08-21T05:57:52;96414.63;;;24.32;59.04
58092;BME280;43896;48.178;11.578;2023-08-21T06:00:17;96414.16;;;24.36;59.10
58092;BME280;43896;48.178;11.578;2023-08-21T06:02:43;96348.19;;;23.98;59.05
58092;BME280;43896;48.178;11.578;2023-08-21T06:05:08;96339.91;;;23.99;59.45
58092;BME280;43896;48.178;11.578;2023-08-21T06:07:34;96425.69;;;24.55;58.30
58092;BME280;43896;48.178;11.578;2023-08-21T06:09:59;96398.16;;;24.41;57.80
58092;BME280;43896;48.178;11.578;2023-08-21T06:12:25;96417.38;;;24.56;57.69
58092;BME280;43896;48.178;11.578;2023-08-21T06:14:50;96390.56;;;24.38;57.28
58092;BME280;43896;48.178;11.578;2023-08-21T06:17:15;96359.00;;;24.21;57.33
58092;BME280;43896;48.178;11.578;2023-08-21T06:19:41;96403.84;;;24.63;57.26
58092;BME280;43896;48.178;11.578;2023-08-21T06:22:10;96419.97;;;24.75;57.21
58092;BME280;43896;48.178;11.578;2023-08-21T06:24:35;96398.22;;;24.64;56.83
58092;BME280;43896;48.178;11.578;2023-08-21T06:27:00;96391.81;;;24.65;57.05
58092;BME280;43896;48.178;11.578;2023-08-21T06:29:26;96428.50;;;24.95;56.54
58092;BME280;43896;48.178;11.578;2023-08-21T06:31:51;96419.13;;;24.98;57.18
58092;BME280;43896;48.178;11.578;2023-08-21T06:34:16;96419.00;;;25.04;56.69
58092;BME280;43896;48.178;11.578;2023-08-21T06:36:42;96432.47;;;25.16;56.38
58092;BME280;43896;48.178;11.578;2023-08-21T06:39:07;96395.53;;;24.88;57.00
58092;BME280;43896;48.178;11.578;2023-08-21T06:41:32;96399.72;;;25.07;55.79
58092;BME280;43896;48.178;11.578;2023-08-21T06:43:58;96422.63;;;25.34;55.69
58092;BME280;43896;48.178;11.578;2023-08-21T06:46:24;96366.84;;;25.05;55.04
58092;BME280;43896;48.178;11.578;2023-08-21T06:48:49;96429.75;;;25.52;55.57
58092;BME280;43896;48.178;11.578;2023-08-21T06:51:17;96409.81;;;25.53;54.77
58092;BME280;43896;48.178;11.578;2023-08-21T06:53:43;96398.47;;;25.51;54.71
58092;BME280;43896;48.178;11.578;2023-08-21T06:56:08;96422.88;;;25.73;54.10
58092;BME280;43896;48.178;11.578;2023-08-21T06:58:33;96380.19;;;25.53;53.49
58092;BME280;43896;48.178;11.578;2023-08-21T07:01:00;96410.31;;;25.78;54.05
58092;BME280;43896;48.178;11.578;2023-08-21T07:03:25;96402.81;;;25.80;53.70
58092;BME280;43896;48.178;11.578;2023-08-21T07:05:57;96405.66;;;26.02;53.99
58092;BME280;43896;48.178;11.578;2023-08-21T07:08:23;96422.34;;;26.16;53.97
58092;BME280;43896;48.178;11.578;2023-08-21T07:10:49;96405.78;;;26.25;53.37
58092;BME280;43896;48.178;11.578;2023-08-21T07:13:14;96402.91;;;26.31;52.14
58092;BME280;43896;48.178;11.578;2023-08-21T07:15:39;96417.03;;;26.22;53.24
58092;BME280;43896;48.178;11.578;2023-08-21T07:18:05;96408.84;;;26.16;53.49
58092;BME280;43896;48.178;11.578;2023-08-21T07:20:30;96445.44;;;26.58;52.97
58092;BME280;43896;48.178;11.578;2023-08-21T07:22:55;96431.13;;;26.57;52.63
58092;BME280;43896;48.178;11.578;2023-08-21T07:25:21;96428.28;;;26.81;51.56
58092;BME280;43896;48.178;11.578;2023-08-21T07:27:46;96427.44;;;26.98;51.49
58092;BME280;43896;48.178;11.578;2023-08-21T07:30:11;96442.03;;;27.19;50.12
58092;BME280;43896;48.178;11.578;2023-08-21T07:32:37;96405.69;;;27.04;50.33
58092;BME280;43896;48.178;11.578;2023-08-21T07:35:02;96435.72;;;27.30;49.95
58092;BME280;43896;48.178;11.578;2023-08-21T07:37:28;96443.72;;;27.42;49.94
58092;BME280;43896;48.178;11.578;2023-08-21T07:39:53;96443.84;;;27.52;49.81
58092;BME280;43896;48.178;11.578;2023-08-21T07:42:22;96417.91;;;27.12;51.57
58092;BME280;43896;48.178;11.578;2023-08-21T07:44:47;96419.63;;;27.18;51.86
58092;BME280;43896;48.178;11.578;2023-08-21T07:47:12;96433.50;;;27.05;51.06
58092;BME280;43896;48.178;11.578;2023-08-21T07:49:37;96448.19;;;27.14;51.74
58092;BME280;43896;48.178;11.578;2023-08-21T07:52:03;96441.41;;;27.50;50.43
58092;BME280;43896;48.178;11.578;2023-08-21T07:54:29;96433.69;;;27.37;51.52
58092;BME280;43896;48.178;11.578;2023-08-21T07:56:54;96414.44;;;27.56;49.77
58092;BME280;43896;48.178;11.578;2023-08-21T07:59:19;96436.66;;;28.07;49.03
58092;BME280;43896;48.178;11.578;2023-08-21T08:01:45;96434.28;;;27.88;50.21
58092;BME280;43896;48.178;11.578;2023-08-21T08:04:10;96436.09;;;28.05;49.02
58092;BME280;43896;48.178;11.578;2023-08-21T08:06:36;96438.84;;;28.10;49.54
58092;BME280;43896;48.178;11.578;2023-08-21T08:09:01;96412.06;;;27.86;49.36
58092;BME280;43896;48.178;11.578;2023-08-21T08:11:29;96442.31;;;28.33;48.07
58092;BME280;43896;48.178;11.578;2023-08-21T08:13:55;96439.31;;;28.29;49.34
58092;BME280;43896;48.178;11.578;2023-08-21T08:16:21;96418.91;;;28.16;47.67
58092;BME280;43896;48.178;11.578;2023-08-21T08:18:46;96406.78;;;28.24;48.33
58092;BME280;43896;48.178;11.578;2023-08-21T08:21:12;96442.34;;;28.65;48.05
58092;BME280;43896;48.178;11.578;2023-08-21T08:23:37;96430.56;;;28.82;46.10
58092;BME280;43896;48.178;11.578;2023-08-21T08:26:03;96427.16;;;28.64;47.40
58092;BME280;43896;48.178;11.578;2023-08-21T08:28:28;96411.38;;;28.83;47.34
58092;BME280;43896;48.178;11.578;2023-08-21T08:30:54;96436.03;;;29.34;45.61
58092;BME280;43896;48.178;11.578;2023-08-21T08:33:19;96421.28;;;29.15;45.26
58092;BME280;43896;48.178;11.578;2023-08-21T08:35:45;96429.53;;;29.30;46.07
58092;BME280;43896;48.178;11.578;2023-08-21T08:38:10;96419.69;;;29.19;46.71
58092;BME280;43896;48.178;11.578;2023-08-21T08:40:41;96391.09;;;29.39;44.79
58092;BME280;43896;48.178;11.578;2023-08-21T08:43:07;96441.97;;;29.89;44.90
58092;BME280;43896;48.178;11.578;2023-08-21T08:45:34;96411.09;;;29.96;43.87
58092;BME280;43896;48.178;11.578;2023-08-21T08:48:00;96435.28;;;30.23;42.52
58092;BME280;43896;48.178;11.578;2023-08-21T08:50:29;96425.75;;;30.05;42.88
58092;BME280;43896;48.178;11.578;2023-08-21T08:52:56;96440.97;;;30.16;43.46
58092;BME280;43896;48.178;11.578;2023-08-21T08:55:22;96444.28;;;30.49;42.12
58092;BME280;43896;48.178;11.578;2023-08-21T08:57:48;96433.91;;;30.25;42.74
58092;BME280;43896;48.178;11.578;2023-08-21T09:00:13;96441.53;;;30.28;42.63
58092;BME280;43896;48.178;11.578;2023-08-21T09:02:39;96438.31;;;30.47;41.55
58092;BME280;43896;48.178;11.578;2023-08-21T09:05:04;96432.34;;;30.65;40.54
58092;BME280;43896;48.178;11.578;2023-08-21T09:07:30;96436.69;;;30.97;38.70
58092;BME280;43896;48.178;11.578;2023-08-21T09:09:55;96422.78;;;31.19;38.12
58092;BME280;43896;48.178;11.578;2023-08-21T09:12:20;96438.06;;;31.00;38.82
58092;BME280;43896;48.178;11.578;2023-08-21T09:14:47;96441.56;;;30.75;38.11
58092;BME280;43896;48.178;11.578;2023-08-21T09:17:13;96424.19;;;30.81;38.20
58092;BME280;43896;48.178;11.578;2023-08-21T09:19:38;96424.47;;;31.05;38.37
58092;BME280;43896;48.178;11.578;2023-08-21T09:22:15;96417.69;;;30.56;36.19
58092;BME280;43896;48.178;11.578;2023-08-21T09:25:05;96431.72;;;31.25;37.04
58092;BME280;43896;48.178;11.578;2023-08-21T09:27:35;96426.69;;;31.68;35.66
58092;BME280;43896;48.178;11.578;2023-08-21T09:30:04;96432.44;;;31.62;36.70
58092;BME280;43896;48.178;11.578;2023-08-21T09:32:29;96438.59;;;31.88;35.18
58092;BME280;43896;48.178;11.578;2023-08-21T09:34:55;96431.78;;;31.85;36.53
58092;BME280;43896;48.178;11.578;2023-08-21T09:37:27;96443.50;;;31.86;35.72
58092;BME280;43896;48.178;11.578;2023-08-21T09:39:53;96429.97;;;31.70;36.12
58092;BME280;43896;48.178;11.578;2023-08-21T09:42:18;96418.38;;;31.99;35.78
58092;BME280;43896;48.178;11.578;2023-08-21T09:44:43;96418.84;;;32.17;35.15
58092;BME280;43896;48.178;11.578;2023-08-21T09:47:10;96433.97;;;32.33;34.43
58092;BME280;43896;48.178;11.578;2023-08-21T09:49:37;96414.22;;;32.17;34.14
58092;BME280;43896;48.178;11.578;2023-08-21T09:52:07;96421.25;;;32.23;35.54
58092;BME280;43896;48.178;11.578;2023-08-21T09:54:35;96411.25;;;32.53;34.28
58092;BME280;43896;48.178;11.578;2023-08-21T09:57:02;96422.66;;;32.55;35.81
58092;BME280;43896;48.178;11.578;2023-08-21T09:59:28;96392.59;;;32.36;35.87
58092;BME280;43896;48.178;11.578;2023-08-21T10:01:54;96403.28;;;32.62;35.92
58092;BME280;43896;48.178;11.578;2023-08-21T10:04:23;96416.81;;;32.72;36.20
58092;BME280;43896;48.178;11.578;2023-08-21T10:06:50;96417.34;;;33.03;35.09
58092;BME280;43896;48.178;11.578;2023-08-21T10:09:17;96421.25;;;32.92;34.74
58092;BME280;43896;48.178;11.578;2023-08-21T10:11:43;96387.00;;;33.10;33.13
58092;BME280;43896;48.178;11.578;2023-08-21T10:14:09;96395.16;;;33.39;33.34
58092;BME280;43896;48.178;11.578;2023-08-21T10:16:35;96392.66;;;33.43;32.73
58092;BME280;43896;48.178;11.578;2023-08-21T10:19:03;96404.31;;;33.24;34.26
58092;BME280;43896;48.178;11.578;2023-08-21T10:21:35;96396.09;;;33.30;33.66
58092;BME280;43896;48.178;11.578;2023-08-21T10:24:00;96405.13;;;33.73;30.85
58092;BME280;43896;48.178;11.578;2023-08-21T10:26:26;96388.03;;;33.19;31.85
58092;BME280;43896;48.178;11.578;2023-08-21T10:33:54;96402.75;;;33.42;31.06
58092;BME280;43896;48.178;11.578;2023-08-21T10:39:24;96406.59;;;33.12;32.43
58092;BME280;43896;48.178;11.578;2023-08-21T15:24:46;96248.25;;;33.90;31.18
58092;BME280;43896;48.178;11.578;2023-08-21T15:27:11;96274.88;;;33.98;32.62
58092;BME280;43896;48.178;11.578;2023-08-21T15:29:38;96251.88;;;33.47;32.31
58092;BME280;43896;48.178;11.578;2023-08-21T15:32:04;96260.34;;;33.70;32.10
58092;BME280;43896;48.178;11.578;2023-08-21T15:34:29;96257.19;;;33.76;31.84
58092;BME280;43896;48.178;11.578;2023-08-21T15:36:54;96259.00;;;33.67;31.24
58092;BME280;43896;48.178;11.578;2023-08-21T15:39:22;96261.84;;;32.95;32.33
58092;BME280;43896;48.178;11.578;2023-08-21T15:41:47;96246.38;;;32.66;33.45
58092;BME280;43896;48.178;11.578;2023-08-21T15:44:13;96262.56;;;33.24;33.50
58092;BME280;43896;48.178;11.578;2023-08-21T15:46:38;96238.34;;;32.99;33.19
58092;BME280;43896;48.178;11.578;2023-08-21T15:49:03;96244.03;;;33.02;32.81
58092;BME280;43896;48.178;11.578;2023-08-21T15:51:29;96254.63;;;33.28;34.30
58092;BME280;43896;48.178;11.578;2023-08-21T15:53:54;96245.91;;;33.26;34.58
58092;BME280;43896;48.178;11.578;2023-08-21T15:56:19;96233.28;;;32.68;34.87
58092;BME280;43896;48.178;11.578;2023-08-21T15:58:45;96227.78;;;32.73;34.39
58092;BME280;43896;48.178;11.578;2023-08-21T16:01:10;96232.22;;;32.88;35.67
58092;BME280;43896;48.178;11.578;2023-08-21T16:03:36;96238.63;;;32.97;34.49
58092;BME280;43896;48.178;11.578;2023-08-21T16:06:02;96244.31;;;32.52;35.69
58092;BME280;43896;48.178;11.578;2023-08-21T16:08:28;96237.19;;;32.62;35.30
58092;BME280;43896;48.178;11.578;2023-08-21T16:10:53;96206.06;;;32.39;34.95
58092;BME280;43896;48.178;11.578;2023-08-21T16:13:19;96237.41;;;32.65;36.41
58092;BME280;43896;48.178;11.578;2023-08-21T16:15:44;96231.34;;;32.44;34.68
58092;BME280;43896;48.178;11.578;2023-08-21T16:18:09;96211.97;;;32.22;37.43
58092;BME280;43896;48.178;11.578;2023-08-21T16:20:35;96237.34;;;32.17;35.22
58092;BME280;43896;48.178;11.578;2023-08-21T16:23:01;96213.38;;;31.50;36.69
58092;BME280;43896;48.178;11.578;2023-08-21T16:25:26;96221.25;;;31.86;36.51
58092;BME280;43896;48.178;11.578;2023-08-21T16:27:51;96207.47;;;31.77;36.13
58092;BME280;43896;48.178;11.578;2023-08-21T16:30:17;96215.88;;;31.81;37.04
58092;BME280;43896;48.178;11.578;2023-08-21T16:32:42;96206.03;;;31.46;36.66
58092;BME280;43896;48.178;11.578;2023-08-21T16:35:07;96204.91;;;31.57;36.30
58092;BME280;43896;48.178;11.578;2023-08-21T16:37:33;96214.16;;;31.56;37.57
58092;BME280;43896;48.178;11.578;2023-08-21T16:39:58;96217.16;;;31.49;37.15
58092;BME280;43896;48.178;11.578;2023-08-21T16:42:23;96214.19;;;31.46;37.72
58092;BME280;43896;48.178;11.578;2023-08-21T16:44:49;96211.38;;;31.21;37.83
58092;BME280;43896;48.178;11.578;2023-08-21T16:47:14;96214.56;;;31.29;37.51
58092;BME280;43896;48.178;11.578;2023-08-21T16:49:39;96230.56;;;31.35;37.57
58092;BME280;43896;48.178;11.578;2023-08-21T16:52:05;96216.50;;;31.28;37.88
58092;BME280;43896;48.178;11.578;2023-08-21T16:54:30;96231.31;;;31.07;38.49
58092;BME280;43896;48.178;11.578;2023-08-21T16:56:56;96233.13;;;31.16;37.76
58092;BME280;43896;48.178;11.578;2023-08-21T16:59:21;96219.34;;;31.02;39.38
58092;BME280;43896;48.178;11.578;2023-08-21T17:01:46;96229.09;;;31.09;38.48
58092;BME280;43896;48.178;11.578;2023-08-21T17:04:12;96201.50;;;30.86;38.60
58092;BME280;43896;48.178;11.578;2023-08-21T17:06:37;96216.09;;;31.00;39.27
58092;BME280;43896;48.178;11.578;2023-08-21T17:09:02;96231.31;;;31.01;39.59
58092;BME280;43896;48.178;11.578;2023-08-21T17:11:29;96222.66;;;30.94;40.18
58092;BME280;43896;48.178;11.578;2023-08-21T17:13:55;96221.66;;;30.70;40.00
58092;BME280;43896;48.178;11.578;2023-08-21T17:16:20;96208.63;;;30.61;39.91
58092;BME280;43896;48.178;11.578;2023-08-21T17:18:46;96239.00;;;30.69;40.59
58092;BME280;43896;48.178;11.578;2023-08-21T17:21:11;96217.91;;;30.55;40.78
58092;BME280;43896;48.178;11.578;2023-08-21T17:23:38;96203.03;;;30.37;40.27
58092;BME280;43896;48.178;11.578;2023-08-21T17:26:03;96224.19;;;30.40;40.76
58092;BME280;43896;48.178;11.578;2023-08-21T17:28:29;96229.63;;;30.40;40.66
58092;BME280;43896;48.178;11.578;2023-08-21T17:30:54;96208.72;;;30.25;41.16
58092;BME280;43896;48.178;11.578;2023-08-21T17:33:19;96214.13;;;30.25;41.11
58092;BME280;43896;48.178;11.578;2023-08-21T17:35:45;96230.44;;;30.36;41.29
58092;BME280;43896;48.178;11.578;2023-08-21T17:38:10;96218.75;;;30.25;40.76
58092;BME280;43896;48.178;11.578;2023-08-21T17:40:35;96224.97;;;30.30;40.10
58092;BME280;43896;48.178;11.578;2023-08-21T17:43:00;96235.56;;;30.32;40.89
58092;BME280;43896;48.178;11.578;2023-08-21T17:45:26;96215.53;;;30.13;40.90
58092;BME280;43896;48.178;11.578;2023-08-21T17:47:51;96234.50;;;30.23;41.60
58092;BME280;43896;48.178;11.578;2023-08-21T17:50:16;96215.28;;;30.04;41.16
58092;BME280;43896;48.178;11.578;2023-08-21T17:52:42;96231.00;;;30.07;41.48
58092;BME280;43896;48.178;11.578;2023-08-21T17:55:07;96241.56;;;30.14;41.87
58092;BME280;43896;48.178;11.578;2023-08-21T17:57:33;96230.72;;;30.08;41.69
58092;BME280;43896;48.178;11.578;2023-08-21T17:59:58;96233.16;;;30.05;42.09
58092;BME280;43896;48.178;11.578;2023-08-21T18:02:23;96244.28;;;30.03;42.42
58092;BME280;43896;48.178;11.578;2023-08-21T18:04:49;96238.06;;;29.98;42.61
58092;BME280;43896;48.178;11.578;2023-08-21T18:07:14;96239.97;;;29.92;42.52
58092;BME280;43896;48.178;11.578;2023-08-21T18:09:39;96240.78;;;29.82;42.17
58092;BME280;43896;48.178;11.578;2023-08-21T18:12:05;96230.72;;;29.72;43.06
58092;BME280;43896;48.178;11.578;2023-08-21T18:14:30;96245.66;;;29.80;43.31
58092;BME280;43896;48.178;11.578;2023-08-21T18:17:00;96225.56;;;29.66;42.88
58092;BME280;43896;48.178;11.578;2023-08-21T18:19:29;96256.47;;;29.75;43.77
58092;BME280;43896;48.178;11.578;2023-08-21T18:21:55;96247.00;;;29.67;43.58
58092;BME280;43896;48.178;11.578;2023-08-21T18:24:20;96230.72;;;29.52;44.42
58092;BME280;43896;48.178;11.578;2023-08-21T18:26:45;96254.81;;;29.59;44.39
58092;BME280;43896;48.178;11.578;2023-08-21T18:29:11;96222.00;;;29.34;44.10
58092;BME280;43896;48.178;11.578;2023-08-21T18:31:36;96259.16;;;29.49;44.71
58092;BME280;43896;48.178;11.578;2023-08-21T18:34:01;96265.63;;;29.43;44.13
58092;BME280;43896;48.178;11.578;2023-08-21T18:36:26;96263.47;;;29.40;45.18
58092;BME280;43896;48.178;11.578;2023-08-21T18:38:57;96257.50;;;29.28;44.88
58092;BME280;43896;48.178;11.578;2023-08-21T18:41:26;96266.16;;;29.30;45.34
58092;BME280;43896;48.178;11.578;2023-08-21T18:43:51;96236.56;;;29.08;44.92
58092;BME280;43896;48.178;11.578;2023-08-21T18:46:17;96251.44;;;29.10;44.91
58092;BME280;43896;48.178;11.578;2023-08-21T18:48:43;96272.09;;;29.16;45.64
58092;BME280;43896;48.178;11.578;2023-08-21T18:51:08;96271.50;;;29.14;45.53
58092;BME280;43896;48.178;11.578;2023-08-21T18:53:34;96271.75;;;29.08;46.00
58092;BME280;43896;48.178;11.578;2023-08-21T18:55:59;96261.16;;;28.96;46.04
58092;BME280;43896;48.178;11.578;2023-08-21T18:58:24;96251.91;;;28.87;46.17
58092;BME280;43896;48.178;11.578;2023-08-21T19:00:54;96281.19;;;29.00;46.28
58092;BME280;43896;48.178;11.578;2023-08-21T19:03:20;96245.34;;;28.72;45.28
58092;BME280;43896;48.178;11.578;2023-08-21T19:05:45;96261.88;;;28.81;45.45
58092;BME280;43896;48.178;11.578;2023-08-21T19:08:10;96274.06;;;28.73;45.89
58092;BME280;43896;48.178;11.578;2023-08-21T19:10:36;96271.63;;;28.77;47.17
58092;BME280;43896;48.178;11.578;2023-08-21T19:13:01;96274.59;;;28.75;47.79
58092;BME280;43896;48.178;11.578;2023-08-21T19:15:30;96275.41;;;28.76;47.75
58092;BME280;43896;48.178;11.578;2023-08-21T19:17:55;96272.94;;;28.69;47.10
58092;BME280;43896;48.178;11.578;2023-08-21T19:20:21;96282.44;;;28.72;47.54
58092;BME280;43896;48.178;11.578;2023-08-21T19:22:46;96259.28;;;28.54;47.66
58092;BME280;43896;48.178;11.578;2023-08-21T19:25:11;96275.31;;;28.60;47.77
58092;BME280;43896;48.178;11.578;2023-08-21T19:27:37;96283.19;;;28.62;47.55
58092;BME280;43896;48.178;11.578;2023-08-21T19:30:03;96289.06;;;28.54;47.86
58092;BME280;43896;48.178;11.578;2023-08-21T19:32:31;96290.97;;;28.53;47.15
58092;BME280;43896;48.178;11.578;2023-08-21T19:34:56;96286.63;;;28.52;47.31
58092;BME280;43896;48.178;11.578;2023-08-21T19:37:22;96277.03;;;28.34;47.53
58092;BME280;43896;48.178;11.578;2023-08-21T19:39:47;96260.75;;;28.24;47.96
58092;BME280;43896;48.178;11.578;2023-08-21T19:42:12;96282.44;;;28.34;47.83
58092;BME280;43896;48.178;11.578;2023-08-21T19:44:38;96274.22;;;28.19;48.67
58092;BME280;43896;48.178;11.578;2023-08-21T19:47:03;96292.19;;;28.30;48.41
58092;BME280;43896;48.178;11.578;2023-08-21T19:49:29;96289.69;;;28.23;48.62
58092;BME280;43896;48.178;11.578;2023-08-21T19:51:54;96272.84;;;28.11;48.73
58092;BME280;43896;48.178;11.578;2023-08-21T19:54:19;96281.78;;;28.17;49.41
58092;BME280;43896;48.178;11.578;2023-08-21T19:56:45;96282.59;;;28.17;49.21
58092;BME280;43896;48.178;11.578;2023-08-21T19:59:10;96273.94;;;28.15;49.05
58092;BME280;43896;48.178;11.578;2023-08-21T20:01:39;96268.75;;;28.09;49.18
58092;BME280;43896;48.178;11.578;2023-08-21T20:04:04;96268.72;;;28.03;48.83
58092;BME280;43896;48.178;11.578;2023-08-21T20:06:30;96269.53;;;28.04;49.17
58092;BME280;43896;48.178;11.578;2023-08-21T20:08:56;96279.75;;;27.97;49.24
58092;BME280;43896;48.178;11.578;2023-08-21T20:11:21;96284.38;;;28.01;49.17
58092;BME280;43896;48.178;11.578;2023-08-21T20:13:47;96279.44;;;27.93;49.91
58092;BME280;43896;48.178;11.578;2023-08-21T20:16:12;96281.56;;;27.91;49.76
58092;BME280;43896;48.178;11.578;2023-08-21T20:18:38;96284.59;;;27.95;49.35
58092;BME280;43896;48.178;11.578;2023-08-21T20:21:04;96291.56;;;27.91;49.71
58092;BME280;43896;48.178;11.578;2023-08-21T20:23:30;96288.56;;;27.87;50.08
58092;BME280;43896;48.178;11.578;2023-08-21T20:25:55;96288.28;;;27.83;50.37
58092;BME280;43896;48.178;11.578;2023-08-21T20:28:21;96283.06;;;27.77;50.53
58092;BME280;43896;48.178;11.578;2023-08-21T20:30:46;96266.19;;;27.64;50.96
58092;BME280;43896;48.178;11.578;2023-08-21T20:33:13;96268.88;;;27.64;50.61
58092;BME280;43896;48.178;11.578;2023-08-21T20:35:39;96265.34;;;27.59;50.76
58092;BME280;43896;48.178;11.578;2023-08-21T20:38:04;96219.59;;;27.25;50.98
58092;BME280;43896;48.178;11.578;2023-08-21T20:40:30;96297.56;;;27.65;50.61
58092;BME280;43896;48.178;11.578;2023-08-21T20:42:55;96240.47;;;27.29;50.44
58092;BME280;43896;48.178;11.578;2023-08-21T20:45:21;96207.78;;;27.04;50.62
58092;BME280;43896;48.178;11.578;2023-08-21T20:47:50;96220.22;;;27.05;50.28
58092;BME280;43896;48.178;11.578;2023-08-21T20:50:23;96237.59;;;27.14;51.25
58092;BME280;43896;48.178;11.578;2023-08-21T20:52:48;96238.72;;;27.18;51.55
58092;BME280;43896;48.178;11.578;2023-08-21T20:55:25;96208.56;;;26.99;51.03
58092;BME280;43896;48.178;11.578;2023-08-21T20:57:51;96267.72;;;27.06;52.18
58092;BME280;43896;48.178;11.578;2023-08-21T21:00:25;96223.25;;;26.86;51.71
58092;BME280;43896;48.178;11.578;2023-08-21T21:02:52;96180.91;;;26.65;52.07
58092;BME280;43896;48.178;11.578;2023-08-21T21:05:17;96234.47;;;27.00;52.04
58092;BME280;43896;48.178;11.578;2023-08-21T21:07:43;96257.19;;;27.04;52.16
58092;BME280;43896;48.178;11.578;2023-08-21T21:10:08;96224.50;;;26.79;52.68
58092;BME280;43896;48.178;11.578;2023-08-21T21:12:34;96268.88;;;27.10;52.68
58092;BME280;43896;48.178;11.578;2023-08-21T21:14:59;96230.84;;;26.89;52.69
58092;BME280;43896;48.178;11.578;2023-08-21T21:17:25;96204.78;;;26.78;52.48
58092;BME280;43896;48.178;11.578;2023-08-21T21:19:50;96193.56;;;26.64;52.67
58092;BME280;43896;48.178;11.578;2023-08-21T21:22:16;96228.63;;;26.86;52.97
58092;BME280;43896;48.178;11.578;2023-08-21T21:24:41;96226.88;;;26.75;53.27
58092;BME280;43896;48.178;11.578;2023-08-21T21:27:06;96230.41;;;26.75;53.83
58092;BME280;43896;48.178;11.578;2023-08-21T21:29:32;96225.25;;;26.74;53.66
58092;BME280;43896;48.178;11.578;2023-08-21T21:31:57;96214.91;;;26.66;53.99
58092;BME280;43896;48.178;11.578;2023-08-21T21:34:23;96296.22;;;26.57;55.76
58092;BME280;43896;48.178;11.578;2023-08-21T21:36:48;96214.78;;;26.38;55.00
58092;BME280;43896;48.178;11.578;2023-08-21T21:39:14;96214.38;;;26.47;54.34
58092;BME280;43896;48.178;11.578;2023-08-21T21:41:39;96204.97;;;26.49;54.72
58092;BME280;43896;48.178;11.578;2023-08-21T21:44:05;96274.66;;;26.97;54.58
58092;BME280;43896;48.178;11.578;2023-08-21T21:46:30;96249.59;;;26.79;54.86
58092;BME280;43896;48.178;11.578;2023-08-21T21:48:57;96188.53;;;26.29;55.28
58092;BME280;43896;48.178;11.578;2023-08-21T21:51:23;96197.38;;;26.46;54.70
58092;BME280;43896;48.178;11.578;2023-08-21T21:53:48;96243.53;;;26.67;55.18
58092;BME280;43896;48.178;11.578;2023-08-21T21:56:14;96183.63;;;26.26;55.32
58092;BME280;43896;48.178;11.578;2023-08-21T21:58:39;96252.75;;;26.71;55.23
58092;BME280;43896;48.178;11.578;2023-08-21T22:01:04;96236.63;;;26.59;55.76
58092;BME280;43896;48.178;11.578;2023-08-21T22:03:30;96225.47;;;26.50;55.68
58092;BME280;43896;48.178;11.578;2023-08-21T22:05:56;96209.09;;;26.35;55.32
58092;BME280;43896;48.178;11.578;2023-08-21T22:08:23;96204.72;;;26.29;55.38